createdAt,value
2018-02-22T00:02:06.762Z,-1.90
2018-02-22T00:04:37.418Z,-1.90
2018-02-22T00:07:08.010Z,-1.80
2018-02-22T00:09:38.311Z,-1.80
2018-02-22T00:12:08.710Z,-1.80
2018-02-22T00:14:39.962Z,-1.70
2018-02-22T00:17:11.096Z,-1.70
2018-02-22T00:19:42.037Z,-1.70
2018-02-22T00:22:19.132Z,-1.50
2018-02-22T00:24:49.613Z,-1.60
2018-02-22T00:27:20.296Z,-1.50
2018-02-22T00:29:50.624Z,-1.50
2018-02-22T00:32:21.717Z,-1.70
2018-02-22T00:34:52.025Z,-1.70
2018-02-22T00:37:22.334Z,-1.70
2018-02-22T00:39:53.113Z,-1.80
2018-02-22T00:42:23.438Z,-1.90
2018-02-22T00:44:53.766Z,-1.90
2018-02-22T00:47:24.126Z,-1.80
2018-02-22T00:49:55.294Z,-1.70
2018-02-22T00:52:25.933Z,-1.50
2018-02-22T00:54:56.287Z,-1.60
2018-02-22T00:57:27.360Z,-1.50
2018-02-22T00:59:57.667Z,-1.50
2018-02-22T01:02:28.970Z,-1.40
2018-02-22T01:04:59.501Z,-1.40
2018-02-22T01:07:29.822Z,-1.40
2018-02-22T01:10:00.749Z,-1.60
2018-02-22T01:12:31.162Z,-1.40
2018-02-22T01:15:01.460Z,-1.40
2018-02-22T01:17:32.051Z,-1.40
2018-02-22T01:20:02.399Z,-1.30
2018-02-22T01:22:32.710Z,-1.30
2018-02-22T01:25:03.407Z,-1.30
2018-02-22T01:27:35.177Z,-1.30
2018-02-22T01:30:05.497Z,-1.30
2018-02-22T01:32:36.643Z,-1.30
2018-02-22T01:35:06.959Z,-1.30
2018-02-22T01:37:37.546Z,-1.30
2018-02-22T01:40:07.926Z,-1.40
2018-02-22T01:42:38.223Z,-1.30
2018-02-22T01:45:08.540Z,-1.30
2018-02-22T01:47:38.878Z,-1.20
2018-02-22T01:50:09.528Z,-1.10
2018-02-22T01:52:39.852Z,-1.00
2018-02-22T01:55:10.170Z,-1.00
2018-02-22T01:57:40.456Z,-1.00
2018-02-22T02:00:10.922Z,-0.90
2018-02-22T02:02:41.150Z,-0.90
2018-02-22T02:05:11.486Z,-0.80
2018-02-22T02:07:42.801Z,-0.80
2018-02-22T02:10:13.098Z,-0.80
2018-02-22T02:12:43.402Z,-0.80
2018-02-22T02:15:13.838Z,-0.80
2018-02-22T02:17:44.166Z,-0.80
2018-02-22T02:20:14.469Z,-0.80
2018-02-22T02:22:45.205Z,-0.80
2018-02-22T02:25:15.527Z,-0.80
2018-02-22T02:27:49.914Z,-0.80
2018-02-22T02:30:20.595Z,-0.70
2018-02-22T02:32:51.731Z,-0.60
2018-02-22T02:35:22.047Z,-0.70
2018-02-22T02:37:52.459Z,-0.70
2018-02-22T02:40:22.914Z,-0.70
2018-02-22T02:42:53.459Z,-0.70
2018-02-22T02:45:23.782Z,-0.70
2018-02-22T02:47:54.114Z,-0.70
2018-02-22T02:50:25.755Z,-0.60
2018-02-22T02:52:56.321Z,-0.60
2018-02-22T02:55:27.419Z,-0.60
2018-02-22T02:57:57.746Z,-0.60
2018-02-22T03:00:28.451Z,-0.60
2018-02-22T03:02:58.742Z,-0.60
2018-02-22T03:05:29.964Z,-0.60
2018-02-22T03:08:00.276Z,-0.70
2018-02-22T03:10:30.613Z,-0.50
2018-02-22T03:13:01.661Z,-0.40
2018-02-22T03:15:32.077Z,-0.40
2018-02-22T03:18:02.408Z,-0.50
2018-02-22T03:20:32.920Z,-0.40
2018-02-22T03:23:03.206Z,-0.40
2018-02-22T03:25:33.489Z,-0.30
2018-02-22T03:28:04.049Z,-0.30
2018-02-22T03:30:34.329Z,-0.30
2018-02-22T03:33:04.621Z,-0.30
2018-02-22T03:35:35.161Z,-0.40
2018-02-22T03:38:06.300Z,-0.20
2018-02-22T03:40:36.564Z,-0.20
2018-02-22T03:43:06.916Z,-0.20
2018-02-22T03:45:37.723Z,-0.10
2018-02-22T03:48:08.729Z,-0.20
2018-02-22T03:50:39.009Z,-0.20
2018-02-22T03:53:09.325Z,-0.20
2018-02-22T03:55:39.597Z,-0.20
2018-02-22T03:58:09.883Z,-0.30
2018-02-22T04:00:40.505Z,-0.30
2018-02-22T04:03:10.988Z,-0.30
2018-02-22T04:05:41.305Z,-0.30
2018-02-22T04:08:11.929Z,-0.30
2018-02-22T04:10:42.269Z,-0.30
2018-02-22T04:13:12.548Z,-0.30
2018-02-22T04:15:44.374Z,-0.20
2018-02-22T04:18:14.716Z,-0.20
2018-02-22T04:20:45.055Z,-0.20
2018-02-22T04:23:16.208Z,-0.10
2018-02-22T04:25:46.480Z,-0.10
2018-02-22T04:28:16.760Z,-0.10
2018-02-22T04:30:47.517Z,0.00
2018-02-22T04:33:18.550Z,0.20
2018-02-22T04:35:48.981Z,0.20
2018-02-22T04:38:19.557Z,0.10
2018-02-22T04:40:49.841Z,0.10
2018-02-22T04:43:20.843Z,0.10
2018-02-22T04:45:52.145Z,0.10
2018-02-22T04:48:22.405Z,0.10
2018-02-22T04:50:52.641Z,0.10
2018-02-22T04:53:23.201Z,0.10
2018-02-22T04:55:54.507Z,0.10
2018-02-22T04:58:26.188Z,0.10
2018-02-22T05:00:56.674Z,0.10
2018-02-22T05:03:27.105Z,0.10
2018-02-22T05:05:57.592Z,0.10
2018-02-22T05:08:27.904Z,0.00
2018-02-22T05:10:58.261Z,0.10
2018-02-22T05:13:28.786Z,0.10
2018-02-22T05:15:59.052Z,0.20
2018-02-22T05:18:29.979Z,0.20
2018-02-22T05:21:00.384Z,0.20
2018-02-22T05:23:31.501Z,0.30
2018-02-22T05:26:02.228Z,0.30
2018-02-22T05:28:32.780Z,0.30
2018-02-22T05:31:03.033Z,0.30
2018-02-22T05:33:34.738Z,0.40
2018-02-22T05:36:05.009Z,0.40
2018-02-22T05:38:35.529Z,0.40
2018-02-22T05:41:06.042Z,0.50
2018-02-22T05:43:36.373Z,0.50
2018-02-22T05:46:06.758Z,0.50
2018-02-22T05:48:37.289Z,0.60
2018-02-22T05:51:07.569Z,0.60
2018-02-22T05:53:37.989Z,0.70
2018-02-22T05:56:08.377Z,0.70
2018-02-22T05:58:38.760Z,0.60
2018-02-22T06:01:09.870Z,0.40
2018-02-22T06:03:40.376Z,0.40
2018-02-22T06:06:10.829Z,0.40
2018-02-22T06:08:41.127Z,0.40
2018-02-22T06:11:11.696Z,0.40
2018-02-22T06:13:41.954Z,0.40
2018-02-22T06:16:12.490Z,0.40
2018-02-22T06:18:43.092Z,0.40
2018-02-22T06:21:15.362Z,0.40
2018-02-22T06:23:46.699Z,0.40
2018-02-22T06:26:17.716Z,0.50
2018-02-22T06:28:47.992Z,0.50
2018-02-22T06:31:18.813Z,0.50
2018-02-22T06:33:49.041Z,0.50
2018-02-22T06:36:19.288Z,0.50
2018-02-22T06:38:49.973Z,0.60
2018-02-22T06:41:20.986Z,0.60
2018-02-22T06:43:55.983Z,0.60
2018-02-22T06:46:26.921Z,0.70
2018-02-22T06:49:03.744Z,0.70
2018-02-22T06:51:35.630Z,0.80
2018-02-22T06:54:06.357Z,0.90
2018-02-22T06:56:42.574Z,0.90
2018-02-22T06:59:13.669Z,0.80
2018-02-22T07:01:44.177Z,0.90
2018-02-22T07:04:15.067Z,0.90
2018-02-22T07:06:46.054Z,0.90
2018-02-22T07:09:17.902Z,1.00
2018-02-22T07:11:51.273Z,0.90
2018-02-22T07:14:25.158Z,1.00
2018-02-22T07:17:02.710Z,1.00
2018-02-22T07:19:36.310Z,1.10
2018-02-22T07:22:07.741Z,1.20
2018-02-22T07:24:42.059Z,1.10
2018-02-22T07:27:14.868Z,1.10
2018-02-22T07:29:45.855Z,1.10
2018-02-22T07:32:21.944Z,1.20
2018-02-22T07:34:59.403Z,1.30
2018-02-22T07:37:37.554Z,1.30
2018-02-22T07:40:21.338Z,1.30
2018-02-22T07:42:53.839Z,1.40
2018-02-22T07:45:25.635Z,1.30
2018-02-22T07:48:00.795Z,1.50
2018-02-22T07:50:32.493Z,1.50
2018-02-22T07:56:00.242Z,1.50
2018-02-22T07:58:37.799Z,1.80
2018-02-22T08:01:09.168Z,1.80
2018-02-22T08:03:39.952Z,1.80
2018-02-22T08:06:11.786Z,1.80
2018-02-22T08:08:42.082Z,1.80
2018-02-22T08:11:14.255Z,1.90
2018-02-22T08:13:45.304Z,1.90
2018-02-22T08:16:15.686Z,1.90
2018-02-22T08:18:46.331Z,1.90
2018-02-22T08:21:18.835Z,2.00
2018-02-22T08:23:51.099Z,2.10
2018-02-22T08:26:22.658Z,2.10
2018-02-22T08:28:53.015Z,1.90
2018-02-22T08:31:25.346Z,1.90
2018-02-22T08:33:58.884Z,2.00
2018-02-22T08:36:31.143Z,2.20
2018-02-22T08:39:01.457Z,2.20
2018-02-22T08:41:32.206Z,2.10
2018-02-22T08:44:02.694Z,2.20
2018-02-22T08:46:33.022Z,2.40
2018-02-22T08:49:04.154Z,2.60
2018-02-22T08:51:34.486Z,2.60
2018-02-22T08:54:04.846Z,2.80
2018-02-22T08:56:35.447Z,2.90
2018-02-22T08:59:05.797Z,3.20
2018-02-22T09:01:36.078Z,3.20
2018-02-22T09:04:06.936Z,3.30
2018-02-22T09:06:37.544Z,3.30
2018-02-22T09:09:08.175Z,3.20
2018-02-22T09:11:38.502Z,3.00
2018-02-22T09:14:09.076Z,3.00
2018-02-22T09:16:40.754Z,3.00
2018-02-22T09:19:11.112Z,2.90
2018-02-22T09:21:41.800Z,2.70
2018-02-22T09:24:13.007Z,3.10
2018-02-22T09:26:43.342Z,3.10
2018-02-22T09:30:33.103Z,3.20
2018-02-22T09:33:04.254Z,3.50
2018-02-22T09:35:34.883Z,3.50
2018-02-22T09:38:05.954Z,3.90
2018-02-22T09:40:37.009Z,4.10
2018-02-22T09:43:08.539Z,4.20
2018-02-22T09:45:38.853Z,4.20
2018-02-22T09:48:09.223Z,3.90
2018-02-22T09:50:39.776Z,3.90
2018-02-22T09:53:10.064Z,3.90
2018-02-22T09:55:40.410Z,4.00
2018-02-22T09:58:11.037Z,4.00
2018-02-22T10:00:42.354Z,4.10
2018-02-22T10:03:12.703Z,4.60
2018-02-22T10:05:43.949Z,4.40
2018-02-22T10:08:14.467Z,4.40
2018-02-22T10:10:44.914Z,4.50
2018-02-22T10:13:15.493Z,4.60
2018-02-22T10:15:46.588Z,5.10
2018-02-22T10:18:16.924Z,5.10
2018-02-22T10:20:47.366Z,5.10
2018-02-22T10:23:17.678Z,5.00
2018-02-22T10:25:48.013Z,4.80
2018-02-22T10:28:19.970Z,4.20
2018-02-22T10:30:51.353Z,4.60
2018-02-22T10:33:22.045Z,4.50
2018-02-22T10:35:52.350Z,5.00
2018-02-22T10:38:22.630Z,5.30
2018-02-22T10:40:52.958Z,5.40
2018-02-22T10:43:23.235Z,5.50
2018-02-22T10:45:53.761Z,5.70
2018-02-22T10:48:24.334Z,5.70
2018-02-22T10:50:54.682Z,5.70
2018-02-22T10:53:25.116Z,5.90
2018-02-22T10:55:55.433Z,6.30
2018-02-22T10:58:27.057Z,6.50
2018-02-22T11:01:01.454Z,6.40
2018-02-22T11:03:31.770Z,6.30
2018-02-22T11:06:02.137Z,6.50
2018-02-22T11:08:32.441Z,6.30
2018-02-22T11:11:03.782Z,6.20
2018-02-22T11:13:34.944Z,6.60
2018-02-22T11:16:05.298Z,6.60
2018-02-22T11:18:35.937Z,6.60
2018-02-22T11:21:06.314Z,6.50
2018-02-22T11:23:36.651Z,6.70
2018-02-22T11:26:07.268Z,6.80
2018-02-22T11:28:38.548Z,7.00
2018-02-22T11:31:08.992Z,6.50
2018-02-22T11:33:39.344Z,6.60
2018-02-22T11:36:09.694Z,6.40
2018-02-22T11:38:40.271Z,6.40
2018-02-22T11:41:10.596Z,6.20
2018-02-22T11:43:40.889Z,6.40
2018-02-22T11:46:11.498Z,5.90
2018-02-22T11:48:41.868Z,5.80
2018-02-22T11:51:13.116Z,6.00
2018-02-22T11:53:43.458Z,6.40
2018-02-22T11:56:13.835Z,6.30
2018-02-22T11:58:44.313Z,6.50
2018-02-22T12:01:14.916Z,6.70
2018-02-22T12:03:46.158Z,7.00
2018-02-22T12:06:27.070Z,6.90
2018-02-22T12:08:58.746Z,6.80
2018-02-22T12:11:29.139Z,6.60
2018-02-22T12:13:59.690Z,6.70
2018-02-22T12:16:31.199Z,6.70
2018-02-22T12:19:01.586Z,6.70
2018-02-22T12:21:32.859Z,6.90
2018-02-22T12:24:03.483Z,7.30
2018-02-22T12:26:34.344Z,7.10
2018-02-22T12:29:04.689Z,6.90
2018-02-22T12:31:34.999Z,6.80
2018-02-22T12:34:05.549Z,6.60
2018-02-22T12:36:35.942Z,6.50
2018-02-22T12:39:06.438Z,6.70
2018-02-22T12:41:37.003Z,6.90
2018-02-22T12:44:08.298Z,6.40
2018-02-22T12:46:38.653Z,6.40
2018-02-22T12:49:09.294Z,6.40
2018-02-22T12:51:39.809Z,6.40
2018-02-22T12:54:10.219Z,6.40
2018-02-22T12:56:40.830Z,6.60
2018-02-22T12:59:11.727Z,6.80
2018-02-22T13:01:42.111Z,6.30
2018-02-22T13:04:12.481Z,6.00
2018-02-22T13:06:42.941Z,6.10
2018-02-22T13:09:13.835Z,5.90
2018-02-22T13:11:44.758Z,6.20
2018-02-22T13:14:15.135Z,6.10
2018-02-22T13:16:45.771Z,5.80
2018-02-22T13:19:16.178Z,5.70
2018-02-22T13:21:47.403Z,5.90
2018-02-22T13:24:17.864Z,5.90
2018-02-22T13:26:48.333Z,6.00
2018-02-22T13:29:19.463Z,5.70
2018-02-22T13:31:50.316Z,5.60
2018-02-22T13:34:30.466Z,5.20
2018-02-22T13:37:01.432Z,5.20
2018-02-22T13:39:31.737Z,5.10
2018-02-22T13:42:02.074Z,5.10
2018-02-22T13:45:45.462Z,5.20
2018-02-22T13:48:15.838Z,5.20
2018-02-22T13:51:08.530Z,5.10
2018-02-22T13:53:39.969Z,5.00
2018-02-22T13:56:15.948Z,4.90
2018-02-22T13:58:47.002Z,5.00
2018-02-22T14:02:25.339Z,5.00
2018-02-22T14:04:56.563Z,5.20
2018-02-22T14:07:28.051Z,5.10
2018-02-22T14:09:58.445Z,4.80
2018-02-22T14:12:28.814Z,5.10
2018-02-22T14:14:59.442Z,5.10
2018-02-22T14:17:29.802Z,5.20
2018-02-22T14:20:00.086Z,5.20
2018-02-22T14:22:30.469Z,5.20
2018-02-22T14:25:00.805Z,4.90
2018-02-22T14:27:31.142Z,5.10
2018-02-22T14:30:02.279Z,5.60
2018-02-22T14:32:32.581Z,5.60
2018-02-22T14:35:03.190Z,5.60
2018-02-22T14:37:33.512Z,5.70
2018-02-22T14:40:03.966Z,5.80
2018-02-22T14:42:35.390Z,5.40
2018-02-22T14:45:05.751Z,5.40
2018-02-22T14:47:36.070Z,5.30
2018-02-22T14:50:06.760Z,5.40
2018-02-22T14:52:37.144Z,5.50
2018-02-22T14:55:07.530Z,5.50
2018-02-22T14:57:39.007Z,5.50
2018-02-22T15:00:10.085Z,5.20
2018-02-22T15:02:40.597Z,5.20
2018-02-22T15:05:11.494Z,5.20
2018-02-22T15:07:41.885Z,5.10
2018-02-22T15:10:12.550Z,5.10
2018-02-22T15:12:43.267Z,4.90
2018-02-22T15:15:13.567Z,4.60
2018-02-22T15:17:44.002Z,4.60
2018-02-22T15:20:15.218Z,4.40
2018-02-22T15:22:46.459Z,4.70
2018-02-22T15:25:17.936Z,5.20
2018-02-22T15:27:48.710Z,5.80
2018-02-22T15:30:19.542Z,6.10
2018-02-22T15:32:51.147Z,5.60
2018-02-22T15:35:26.258Z,5.60
2018-02-22T15:37:58.119Z,5.50
2018-02-22T15:40:30.808Z,5.50
2018-02-22T15:43:01.279Z,5.60
2018-02-22T15:45:31.685Z,5.80
2018-02-22T15:48:03.133Z,5.80
2018-02-22T15:50:37.033Z,5.70
2018-02-22T15:53:07.672Z,5.50
